Time;durP1;ratioP1;P1;durP2;ratioP2;P2;SDS_P1;SDS_P2;PMS_P1;PMS_P2;Temp;Humidity;BMP_temperature;BMP_pressure;BME280_temperature;BME280_humidity;BME280_pressure;Samples;Min_cycle;Max_cycle;Signal;HPM_P1;HPM_P2
2022/09/10 00:01:21;;;;;;;1999.90;999.90;;;;;;;-144.65;100.00;64500.88;5035397;28;20025;-77
2022/09/10 00:03:48;;;;;;;1999.90;999.90;;;;;;;-144.65;100.00;64500.88;5035988;28;20022;-76
2022/09/10 00:06:15;;;;;;;1999.90;999.90;;;;;;;-144.65;100.00;64500.88;5036238;28;20510;-75
2022/09/10 00:08:40;;;;;;;1999.90;999.90;;;;;;;-144.65;100.00;64500.88;5036286;28;20037;-77
2022/09/10 00:11:09;;;;;;;1999.90;999.90;;;;;;;-144.65;100.00;64500.88;5036142;28;20021;-77
2022/09/10 00:13:38;;;;;;;1999.90;999.90;;;;;;;-144.65;100.00;64500.88;5036242;28;20053;-78
2022/09/10 00:16:06;;;;;;;1999.90;999.90;;;;;;;-144.65;100.00;64500.88;5035915;28;20397;-77
2022/09/10 00:18:33;;;;;;;1999.90;999.90;;;;;;;-144.65;100.00;64500.88;5035444;28;20037;-77
2022/09/10 00:21:01;;;;;;;1999.90;999.90;;;;;;;-144.65;100.00;64500.88;5035529;28;20053;-76
2022/09/10 00:23:28;;;;;;;1999.90;999.90;;;;;;;-144.65;100.00;64500.88;5035949;28;20497;-76
2022/09/10 00:25:56;;;;;;;1999.90;999.90;;;;;;;-144.65;100.00;64500.88;5039847;28;20025;-77
2022/09/10 00:28:24;;;;;;;1999.90;999.90;;;;;;;-144.65;100.00;64500.88;5039073;28;20036;-77
2022/09/10 00:30:53;;;;;;;1999.90;999.90;;;;;;;-144.65;100.00;64500.88;5035466;28;20034;-77
2022/09/10 00:33:20;;;;;;;1999.90;999.90;;;;;;;-144.65;100.00;64500.88;5034280;28;20037;-77
2022/09/10 00:35:46;;;;;;;1999.90;999.90;;;;;;;-144.65;100.00;64500.88;5034020;28;20609;-77
2022/09/10 00:38:13;;;;;;;1999.90;999.90;;;;;;;-144.65;100.00;64500.88;5033538;28;20041;-77
2022/09/10 00:40:39;;;;;;;1999.90;999.90;;;;;;;-144.65;100.00;64500.88;5033570;28;20112;-77
2022/09/10 00:43:25;;;;;;;1999.90;999.90;;;;;;;-144.65;100.00;64500.88;5034443;28;20103;-77
2022/09/10 00:45:54;;;;;;;1999.90;999.90;;;;;;;-144.65;100.00;64500.88;5034095;28;20040;-76
2022/09/10 00:48:37;;;;;;;1999.90;999.90;;;;;;;-144.65;100.00;64500.88;5035017;28;20025;-77
2022/09/10 00:51:04;;;;;;;1999.90;999.90;;;;;;;-144.65;100.00;64500.88;5034526;28;20059;-77
2022/09/10 00:53:31;;;;;;;1999.90;999.90;;;;;;;-144.65;100.00;64500.88;5035073;28;20080;-76
2022/09/10 00:55:59;;;;;;;1999.90;999.90;;;;;;;-144.65;100.00;64500.88;5035032;28;20076;-75
2022/09/10 00:58:26;;;;;;;1999.90;999.90;;;;;;;-144.65;100.00;64500.88;5017001;28;20021;-76
2022/09/10 01:00:56;;;;;;;1999.90;999.90;;;;;;;-144.65;100.00;64500.88;5034227;28;20025;-77
2022/09/10 01:03:22;;;;;;;1999.90;999.90;;;;;;;-144.65;100.00;64500.88;5033678;28;20021;-77
2022/09/10 01:05:49;;;;;;;1999.90;999.90;;;;;;;-144.65;100.00;64500.88;5034508;28;20033;-77
2022/09/10 01:08:16;;;;;;;1999.90;999.90;;;;;;;-144.65;100.00;64500.88;5018206;28;20033;-78
2022/09/10 01:11:02;;;;;;;1999.90;999.90;;;;;;;-144.65;100.00;64500.88;5034728;28;20045;-77
2022/09/10 01:13:42;;;;;;;1999.90;999.90;;;;;;;-144.65;100.00;64500.88;5017509;28;20545;-78
2022/09/10 01:16:19;;;;;;;1999.90;999.90;;;;;;;-144.65;100.00;64500.88;5034598;28;20145;-78
2022/09/10 01:18:56;;;;;;;1999.90;999.90;;;;;;;-144.65;100.00;64500.88;5035162;28;20037;-77
2022/09/10 01:21:33;;;;;;;1999.90;999.90;;;;;;;-144.65;100.00;64500.88;5035307;28;20033;-77
2022/09/10 01:24:32;;;;;;;1999.90;999.90;;;;;;;-144.65;100.00;64500.88;5035800;28;20029;-78
2022/09/10 01:27:07;;;;;;;1999.90;999.90;;;;;;;-144.65;100.00;64500.88;5037199;28;20026;-77
2022/09/10 01:29:51;;;;;;;1999.90;999.90;;;;;;;-144.65;100.00;64500.88;5037235;28;20029;-78
2022/09/10 01:32:26;;;;;;;1999.90;999.90;;;;;;;-144.65;100.00;64500.88;5038378;28;20037;-76
2022/09/10 01:35:09;;;;;;;1999.90;999.90;;;;;;;-144.65;100.00;64500.88;5038160;28;20115;-78
2022/09/10 01:37:37;;;;;;;1999.90;999.90;;;;;;;-144.65;100.00;64500.88;5017632;28;20041;-77
2022/09/10 01:40:05;;;;;;;1999.90;999.90;;;;;;;-144.65;100.00;64500.88;5035546;28;20026;-78
2022/09/10 01:42:31;;;;;;;1999.90;999.90;;;;;;;-144.65;100.00;64500.88;5018003;28;20034;-76
2022/09/10 01:44:57;;;;;;;1999.90;999.90;;;;;;;-144.65;100.00;64500.88;5035742;28;20030;-77
2022/09/10 01:47:50;;;;;;;1999.90;999.90;;;;;;;-144.65;100.00;64500.88;5038324;28;20494;-77
2022/09/10 01:50:24;;;;;;;1999.90;999.90;;;;;;;-144.65;100.00;64500.88;5045733;28;20092;-76
2022/09/10 01:52:50;;;;;;;1999.90;999.90;;;;;;;-144.65;100.00;64500.88;5039850;28;20045;-76
2022/09/10 01:55:30;;;;;;;1999.90;999.90;;;;;;;-144.65;100.00;64500.88;5034750;28;20486;-77
2022/09/10 01:58:03;;;;;;;1999.90;999.90;;;;;;;-144.65;100.00;64500.88;5034801;28;20025;-77
2022/09/10 02:00:32;;;;;;;1999.90;999.90;;;;;;;-144.65;100.00;64500.88;5033576;28;20025;-77
2022/09/10 02:03:00;;;;;;;1999.90;999.90;;;;;;;-144.65;100.00;64500.88;5033533;28;20033;-77
2022/09/10 02:05:29;;;;;;;1999.90;999.90;;;;;;;-144.65;100.00;64500.88;5034460;28;20025;-76
2022/09/10 02:08:00;;;;;;;1999.90;999.90;;;;;;;-144.65;100.00;64500.88;5031916;28;20040;-76
2022/09/10 02:10:26;;;;;;;1999.90;999.90;;;;;;;-144.65;100.00;64500.88;5031759;28;20517;-76
2022/09/10 02:12:52;;;;;;;1999.90;999.90;;;;;;;-144.65;100.00;64500.88;5034533;28;20037;-76
2022/09/10 02:15:21;;;;;;;1999.90;999.90;;;;;;;-144.65;100.00;64500.88;5037840;28;20486;-76
2022/09/10 02:17:48;;;;;;;1999.90;999.90;;;;;;;-144.65;100.00;64500.88;5031840;28;20100;-76
2022/09/10 02:20:14;;;;;;;1999.90;999.90;;;;;;;-144.65;100.00;64500.88;5031928;28;20020;-76
2022/09/10 02:22:46;;;;;;;1999.90;999.90;;;;;;;-144.65;100.00;64500.88;5031671;28;20034;-76
2022/09/10 02:25:12;;;;;;;1999.90;999.90;;;;;;;-144.65;100.00;64500.88;5031721;28;20124;-77
2022/09/10 02:27:37;;;;;;;1999.90;999.90;;;;;;;-144.65;100.00;64500.88;5031518;28;20108;-76
2022/09/10 02:30:05;;;;;;;1999.90;999.90;;;;;;;-144.65;100.00;64500.88;5031752;28;20386;-77
2022/09/10 02:32:31;;;;;;;1999.90;999.90;;;;;;;-144.65;100.00;64500.88;5033137;28;20126;-75
2022/09/10 02:34:56;;;;;;;1999.90;999.90;;;;;;;-144.65;100.00;64500.88;5032250;28;20037;-77
2022/09/10 02:37:23;;;;;;;1999.90;999.90;;;;;;;-144.65;100.00;64500.88;5032640;28;20116;-77
2022/09/10 02:39:48;;;;;;;1999.90;999.90;;;;;;;-144.65;100.00;64500.88;5032770;28;20467;-77
2022/09/10 02:42:15;;;;;;;1999.90;999.90;;;;;;;-144.65;100.00;64500.88;5032294;28;20120;-77
2022/09/10 02:44:41;;;;;;;1999.90;999.90;;;;;;;-144.65;100.00;64500.88;5032296;28;20021;-77
2022/09/10 02:47:06;;;;;;;1999.90;999.90;;;;;;;-144.65;100.00;64500.88;5032057;28;20115;-77
2022/09/10 02:49:32;;;;;;;1999.90;999.90;;;;;;;-144.65;100.00;64500.88;5031995;28;20037;-76
2022/09/10 02:51:58;;;;;;;1999.90;999.90;;;;;;;-144.65;100.00;64500.88;5031670;28;20044;-77
2022/09/10 02:54:23;;;;;;;1999.90;999.90;;;;;;;-144.65;100.00;64500.88;5032048;28;20542;-77
2022/09/10 02:56:48;;;;;;;1999.90;999.90;;;;;;;-144.65;100.00;64500.88;5032040;28;20829;-74
2022/09/10 02:59:15;;;;;;;1999.90;999.90;;;;;;;-144.65;100.00;64500.88;5014352;28;20045;-77
2022/09/10 03:01:41;;;;;;;1999.90;999.90;;;;;;;-144.65;100.00;64500.88;5032307;28;20022;-77
2022/09/10 03:04:07;;;;;;;1999.90;999.90;;;;;;;-144.65;100.00;64500.88;5033048;28;20037;-77
2022/09/10 03:06:32;;;;;;;1999.90;999.90;;;;;;;-144.65;100.00;64500.88;5033209;28;20033;-77
2022/09/10 03:08:57;;;;;;;1999.90;999.90;;;;;;;-144.65;100.00;64500.88;5031822;28;20034;-75
2022/09/10 03:11:26;;;;;;;1999.90;999.90;;;;;;;-144.65;100.00;64500.88;5032068;28;20026;-77
2022/09/10 03:13:51;;;;;;;1999.90;999.90;;;;;;;-144.65;100.00;64500.88;5033042;28;20022;-77
2022/09/10 03:16:17;;;;;;;1999.90;999.90;;;;;;;-144.65;100.00;64500.88;5032755;28;20025;-76
2022/09/10 03:18:43;;;;;;;1999.90;999.90;;;;;;;-144.65;100.00;64500.88;5038066;28;20112;-77
2022/09/10 03:21:14;;;;;;;1999.90;999.90;;;;;;;-144.65;100.00;64500.88;5032458;28;20041;-77
2022/09/10 03:23:41;;;;;;;1999.90;999.90;;;;;;;-144.65;100.00;64500.88;5033015;28;20108;-77
2022/09/10 03:26:09;;;;;;;1999.90;999.90;;;;;;;-144.65;100.00;64500.88;5033709;28;20092;-77
2022/09/10 03:28:36;;;;;;;1999.90;999.90;;;;;;;-144.65;100.00;64500.88;5016563;28;20032;-78
2022/09/10 03:31:02;;;;;;;1999.90;999.90;;;;;;;-144.65;100.00;64500.88;5034080;28;20037;-77
2022/09/10 03:33:27;;;;;;;1999.90;999.90;;;;;;;-144.65;100.00;64500.88;5034718;28;20367;-77
2022/09/10 03:35:53;;;;;;;1999.90;999.90;;;;;;;-144.65;100.00;64500.88;5034263;28;20017;-78
2022/09/10 03:38:19;;;;;;;1999.90;999.90;;;;;;;-144.65;100.00;64500.88;5035813;28;20024;-78
2022/09/10 03:40:44;;;;;;;1999.90;999.90;;;;;;;-144.65;100.00;64500.88;5037795;28;20545;-77
2022/09/10 03:43:10;;;;;;;1999.90;999.90;;;;;;;-144.65;100.00;64500.88;5033729;28;20069;-77
2022/09/10 03:45:35;;;;;;;1999.90;999.90;;;;;;;-144.65;100.00;64500.88;5034061;28;20049;-78
2022/09/10 03:48:02;;;;;;;1999.90;999.90;;;;;;;-144.65;100.00;64500.88;5034714;28;20105;-77
2022/09/10 03:50:28;;;;;;;1999.90;999.90;;;;;;;-144.65;100.00;64500.88;5033523;28;20061;-77
2022/09/10 03:52:53;;;;;;;1999.90;999.90;;;;;;;-144.65;100.00;64500.88;5033749;28;20096;-77
2022/09/10 03:55:19;;;;;;;1999.90;999.90;;;;;;;-144.65;100.00;64500.88;5033910;28;20028;-78
2022/09/10 03:57:45;;;;;;;1999.90;999.90;;;;;;;-144.65;100.00;64500.88;5033681;28;20076;-77
2022/09/10 04:00:11;;;;;;;1999.90;999.90;;;;;;;-144.65;100.00;64500.88;5012524;28;20022;-78
2022/09/10 04:02:36;;;;;;;1999.90;999.90;;;;;;;-144.65;100.00;64500.88;5024968;28;20053;-78
2022/09/10 04:05:02;;;;;;;1999.90;999.90;;;;;;;-144.65;100.00;64500.88;5018442;28;20391;-77
2022/09/10 04:07:29;;;;;;;1999.90;999.90;;;;;;;-144.65;100.00;64500.88;5034403;28;20030;-76
2022/09/10 04:09:54;;;;;;;1999.90;999.90;;;;;;;-144.65;100.00;64500.88;5033366;28;20037;-77
2022/09/10 04:12:20;;;;;;;1999.90;999.90;;;;;;;-144.65;100.00;64500.88;5033139;28;20026;-78
2022/09/10 04:14:45;;;;;;;1999.90;999.90;;;;;;;-144.65;100.00;64500.88;5033234;28;20386;-77
2022/09/10 04:17:11;;;;;;;1999.90;999.90;;;;;;;-144.65;100.00;64500.88;5036784;28;20128;-78
2022/09/10 04:19:39;;;;;;;1999.90;999.90;;;;;;;-144.65;100.00;64500.88;5036842;28;20083;-77
2022/09/10 04:22:04;;;;;;;1999.90;999.90;;;;;;;-144.65;100.00;64500.88;5037246;28;20064;-77
2022/09/10 04:24:30;;;;;;;1999.90;999.90;;;;;;;-144.65;100.00;64500.88;5037595;28;20037;-77
2022/09/10 04:26:56;;;;;;;1999.90;999.90;;;;;;;-144.65;100.00;64500.88;5037084;28;20382;-77
2022/09/10 04:29:21;;;;;;;1999.90;999.90;;;;;;;-144.65;100.00;64500.88;5036962;28;20064;-77
2022/09/10 04:31:47;;;;;;;1999.90;999.90;;;;;;;-144.65;100.00;64500.88;5037970;28;20034;-78
2022/09/10 04:34:13;;;;;;;1999.90;999.90;;;;;;;-144.65;100.00;64500.88;5036848;28;20018;-77
2022/09/10 04:36:38;;;;;;;1999.90;999.90;;;;;;;-144.65;100.00;64500.88;5036018;28;20084;-77
2022/09/10 04:39:03;;;;;;;1999.90;999.90;;;;;;;-144.65;100.00;64500.88;5035927;28;20028;-78
2022/09/10 04:41:29;;;;;;;1999.90;999.90;;;;;;;-144.65;100.00;64500.88;5035771;28;20036;-77
2022/09/10 04:43:54;;;;;;;1999.90;999.90;;;;;;;-144.65;100.00;64500.88;5037099;28;20021;-77
2022/09/10 04:46:19;;;;;;;1999.90;999.90;;;;;;;-144.65;100.00;64500.88;5036297;28;20466;-75
2022/09/10 04:48:45;;;;;;;1999.90;999.90;;;;;;;-144.65;100.00;64500.88;5034091;28;20041;-76
2022/09/10 05:11:42;;;;;;;1999.90;999.90;;;;;;;-144.65;100.00;64500.88;5645203;23;20241;-78
2022/09/10 05:16:45;;;;;;;1999.90;999.90;;;;;;;-144.65;100.00;64500.88;5581557;23;20041;-74
2022/09/10 05:19:16;;;;;;;1999.90;999.90;;;;;;;-144.65;100.00;64500.88;5038958;28;20048;-80
2022/09/10 05:21:42;;;;;;;1999.90;999.90;;;;;;;-144.65;100.00;64500.88;5058624;28;20040;-75
2022/09/10 05:24:08;;;;;;;1999.90;999.90;;;;;;;-144.65;100.00;64500.88;5059322;28;20026;-76
2022/09/10 05:57:58;;;;;;;1999.90;999.90;;;;;;;-144.65;100.00;64500.88;5032321;28;20050;-77
2022/09/10 06:00:24;;;;;;;1999.90;999.90;;;;;;;-144.65;100.00;64500.88;5006333;28;20038;-79
2022/09/10 06:02:49;;;;;;;1999.90;999.90;;;;;;;-144.65;100.00;64500.88;5011321;28;20165;-75
2022/09/10 06:05:15;;;;;;;1999.90;999.90;;;;;;;-144.65;100.00;64500.88;5000562;28;20112;-70
2022/09/10 06:07:40;;;;;;;1999.90;999.90;;;;;;;-144.65;100.00;64500.88;5001393;28;20395;-72
2022/09/10 06:10:06;;;;;;;1999.90;999.90;;;;;;;-144.65;100.00;64500.88;4999586;28;20038;-72
2022/09/10 06:12:33;;;;;;;1999.90;999.90;;;;;;;-144.65;100.00;64500.88;5001585;28;20049;-71
2022/09/10 06:14:58;;;;;;;1999.90;999.90;;;;;;;-144.65;100.00;64500.88;5001673;28;20018;-70
2022/09/10 06:17:23;;;;;;;1999.90;999.90;;;;;;;-144.65;100.00;64500.88;4983512;28;20040;-70
2022/09/10 06:19:50;;;;;;;1999.90;999.90;;;;;;;-144.65;100.00;64500.88;4996520;28;20100;-70
2022/09/10 06:22:15;;;;;;;1999.90;999.90;;;;;;;-144.65;100.00;64500.88;5000363;28;20057;-70
2022/09/10 06:24:41;;;;;;;1999.90;999.90;;;;;;;-144.65;100.00;64500.88;4983249;28;20797;-71
2022/09/10 06:27:07;;;;;;;1999.90;999.90;;;;;;;-144.65;100.00;64500.88;4999334;28;20458;-70
2022/09/10 06:29:34;;;;;;;1999.90;999.90;;;;;;;-144.65;100.00;64500.88;5000480;28;20041;-71
2022/09/10 06:32:00;;;;;;;1999.90;999.90;;;;;;;-144.65;100.00;64500.88;4998629;28;20054;-70
2022/09/10 06:34:25;;;;;;;1999.90;999.90;;;;;;;-144.65;100.00;64500.88;4973759;28;20066;-71
2022/09/10 06:36:50;;;;;;;1999.90;999.90;;;;;;;-144.65;100.00;64500.88;4995561;28;20033;-70
2022/09/10 06:39:16;;;;;;;1999.90;999.90;;;;;;;-144.65;100.00;64500.88;5010142;28;20049;-71
2022/09/10 06:41:42;;;;;;;1999.90;999.90;;;;;;;-144.65;100.00;64500.88;5003508;28;20030;-70
2022/09/10 06:44:08;;;;;;;1999.90;999.90;;;;;;;-144.65;100.00;64500.88;4994066;28;20030;-70
2022/09/10 06:46:33;;;;;;;1999.90;999.90;;;;;;;-144.65;100.00;64500.88;4990460;28;20483;-72
2022/09/10 06:49:01;;;;;;;1999.90;999.90;;;;;;;-144.65;100.00;64500.88;4990365;28;20037;-71
2022/09/10 06:51:28;;;;;;;1999.90;999.90;;;;;;;-144.65;100.00;64500.88;4981196;28;20124;-71
2022/09/10 06:53:57;;;;;;;1999.90;999.90;;;;;;;-144.65;100.00;64500.88;4995389;28;20076;-71
2022/09/10 06:56:22;;;;;;;1999.90;999.90;;;;;;;-144.65;100.00;64500.88;4996296;28;20050;-70
2022/09/10 06:58:48;;;;;;;1999.90;999.90;;;;;;;-144.65;100.00;64500.88;4991268;28;20387;-71
2022/09/10 07:01:18;;;;;;;1999.90;999.90;;;;;;;-144.65;100.00;64500.88;4991283;28;20057;-71
2022/09/10 07:03:45;;;;;;;1999.90;999.90;;;;;;;-144.65;100.00;64500.88;4991320;28;20080;-70
2022/09/10 07:06:16;;;;;;;1999.90;999.90;;;;;;;-144.65;100.00;64500.88;4990033;28;20038;-75
2022/09/10 07:08:42;;;;;;;1999.90;999.90;;;;;;;-144.65;100.00;64500.88;5001782;28;20479;-77
2022/09/10 07:11:13;;;;;;;1999.90;999.90;;;;;;;-144.65;100.00;64500.88;4999341;28;20821;-77
2022/09/10 07:13:40;;;;;;;1999.90;999.90;;;;;;;-144.65;100.00;64500.88;4982468;28;20029;-77
2022/09/10 07:16:06;;;;;;;1999.90;999.90;;;;;;;-144.65;100.00;64500.88;4979069;28;20510;-77
2022/09/10 07:18:32;;;;;;;1999.90;999.90;;;;;;;-144.65;100.00;64500.88;4991820;28;20101;-77
2022/09/10 07:21:12;;;;;;;1999.90;999.90;;;;;;;-144.65;100.00;64500.88;4997824;28;20053;-77
2022/09/10 07:23:38;;;;;;;1999.90;999.90;;;;;;;-144.65;100.00;64500.88;4992461;28;20082;-78
2022/09/10 07:26:18;;;;;;;1999.90;999.90;;;;;;;-144.65;100.00;64500.88;4993534;28;20050;-77
2022/09/10 07:28:44;;;;;;;1999.90;999.90;;;;;;;-144.65;100.00;64500.88;4992359;28;20415;-76
2022/09/10 07:31:20;;;;;;;1999.90;999.90;;;;;;;-144.65;100.00;64500.88;4989941;28;20055;-75
2022/09/10 07:33:46;;;;;;;1999.90;999.90;;;;;;;-144.65;100.00;64500.88;4998312;28;20022;-75
2022/09/10 07:36:12;;;;;;;1999.90;999.90;;;;;;;-144.65;100.00;64500.88;5007136;28;20032;-75
2022/09/10 07:38:39;;;;;;;1999.90;999.90;;;;;;;-144.65;100.00;64500.88;5004310;28;20080;-75
2022/09/10 07:41:06;;;;;;;1999.90;999.90;;;;;;;-144.65;100.00;64500.88;4995816;28;20499;-76
2022/09/10 07:43:32;;;;;;;1999.90;999.90;;;;;;;-144.65;100.00;64500.88;5001396;28;20096;-75
2022/09/10 07:45:57;;;;;;;1999.90;999.90;;;;;;;-144.65;100.00;64500.88;5001823;28;20113;-76
2022/09/10 07:48:22;;;;;;;1999.90;999.90;;;;;;;-144.65;100.00;64500.88;5002775;28;20030;-75
2022/09/10 07:50:48;;;;;;;1999.90;999.90;;;;;;;-144.65;100.00;64500.88;5011379;28;20030;-75
2022/09/10 07:53:13;;;;;;;1999.90;999.90;;;;;;;-144.65;100.00;64500.88;4997500;28;20081;-77
2022/09/10 07:55:39;;;;;;;1999.90;999.90;;;;;;;-144.65;100.00;64500.88;5004094;28;20069;-78
2022/09/10 07:58:05;;;;;;;1999.90;999.90;;;;;;;-144.65;100.00;64500.88;4986603;28;20099;-75
2022/09/10 08:00:30;;;;;;;1999.90;999.90;;;;;;;-144.65;100.00;64500.88;5007059;28;20025;-74
2022/09/10 08:02:56;;;;;;;1999.90;999.90;;;;;;;-144.65;100.00;64500.88;5002848;28;20034;-75
2022/09/10 08:05:22;;;;;;;1999.90;999.90;;;;;;;-144.65;100.00;64500.88;5005188;28;20026;-75
2022/09/10 08:07:51;;;;;;;1999.90;999.90;;;;;;;-144.65;100.00;64500.88;4999761;28;20050;-75
2022/09/10 08:10:16;;;;;;;1999.90;999.90;;;;;;;-144.65;100.00;64500.88;4994472;28;20039;-75
2022/09/10 08:12:42;;;;;;;1999.90;999.90;;;;;;;-144.65;100.00;64500.88;4994800;28;20142;-75
2022/09/10 08:15:09;;;;;;;1999.90;999.90;;;;;;;-144.65;100.00;64500.88;4994736;28;20069;-72
2022/09/10 08:17:35;;;;;;;1999.90;999.90;;;;;;;-144.65;100.00;64500.88;4993858;28;20030;-71
2022/09/10 08:20:06;;;;;;;1999.90;999.90;;;;;;;-144.65;100.00;64500.88;4993621;28;20022;-72
2022/09/10 08:22:33;;;;;;;1999.90;999.90;;;;;;;-144.65;100.00;64500.88;4993767;28;20096;-72
2022/09/10 08:24:59;;;;;;;1999.90;999.90;;;;;;;-144.65;100.00;64500.88;4993526;28;20026;-71
2022/09/10 08:27:24;;;;;;;1999.90;999.90;;;;;;;-144.65;100.00;64500.88;4993862;28;20034;-72
2022/09/10 08:29:49;;;;;;;1999.90;999.90;;;;;;;-144.65;100.00;64500.88;4993513;28;20058;-72
2022/09/10 08:32:15;;;;;;;1999.90;999.90;;;;;;;-144.65;100.00;64500.88;4980720;28;20033;-71
2022/09/10 08:34:40;;;;;;;1999.90;999.90;;;;;;;-144.65;100.00;64500.88;5003080;28;20415;-72
2022/09/10 08:37:06;;;;;;;1999.90;999.90;;;;;;;-144.65;100.00;64500.88;4985437;28;20559;-72
2022/09/10 08:39:31;;;;;;;1999.90;999.90;;;;;;;-144.65;100.00;64500.88;4999958;28;20037;-71
2022/09/10 08:42:11;;;;;;;1999.90;999.90;;;;;;;-144.65;100.00;64500.88;4993589;28;20065;-71
2022/09/10 08:45:02;;;;;;;1999.90;999.90;;;;;;;-144.65;100.00;64500.88;4979512;28;20073;-71
2022/09/10 08:47:52;;;;;;;1999.90;999.90;;;;;;;-144.65;100.00;64500.88;4975613;28;20046;-71
2022/09/10 08:50:31;;;;;;;1999.90;999.90;;;;;;;-144.65;100.00;64500.88;4974907;28;20041;-71
2022/09/10 08:53:24;;;;;;;1999.90;999.90;;;;;;;-144.65;100.00;64500.88;4993000;28;20038;-72
2022/09/10 08:55:55;;;;;;;1999.90;999.90;;;;;;;-144.65;100.00;64500.88;4989266;28;20038;-71
2022/09/10 08:58:26;;;;;;;1999.90;999.90;;;;;;;-144.65;100.00;64500.88;4984401;28;20038;-72
2022/09/10 09:00:56;;;;;;;1999.90;999.90;;;;;;;-144.65;100.00;64500.88;4955287;28;20034;-71
2022/09/10 09:03:33;;;;;;;1999.90;999.90;;;;;;;-144.65;100.00;64500.88;4973820;28;20368;-71
2022/09/10 09:06:05;;;;;;;1999.90;999.90;;;;;;;-144.65;100.00;64500.88;4984772;28;20081;-74
2022/09/10 09:08:35;;;;;;;1999.90;999.90;;;;;;;-144.65;100.00;64500.88;4985605;28;20062;-72
2022/09/10 09:11:06;;;;;;;1999.90;999.90;;;;;;;-144.65;100.00;64500.88;5001590;28;20022;-72
2022/09/10 09:14:07;;;;;;;1999.90;999.90;;;;;;;-144.65;100.00;64500.88;4986921;28;20060;-71
2022/09/10 09:16:39;;;;;;;1999.90;999.90;;;;;;;-144.65;100.00;64500.88;5006830;28;20098;-72
2022/09/10 09:19:21;;;;;;;1999.90;999.90;;;;;;;-144.65;100.00;64500.88;5003170;28;20072;-72
2022/09/10 09:21:52;;;;;;;1999.90;999.90;;;;;;;-144.65;100.00;64500.88;4985299;28;20032;-71
2022/09/10 09:24:31;;;;;;;1999.90;999.90;;;;;;;-144.65;100.00;64500.88;5002520;28;20022;-72
2022/09/10 09:27:08;;;;;;;1999.90;999.90;;;;;;;-144.65;100.00;64500.88;5001197;28;20128;-71
2022/09/10 09:29:44;;;;;;;1999.90;999.90;;;;;;;-144.65;100.00;64500.88;5000096;28;20026;-70
2022/09/10 09:32:15;;;;;;;1999.90;999.90;;;;;;;-144.65;100.00;64500.88;4981143;28;20113;-72
2022/09/10 09:34:52;;;;;;;1999.90;999.90;;;;;;;-144.65;100.00;64500.88;5001172;28;20049;-72
2022/09/10 09:37:21;;;;;;;1999.90;999.90;;;;;;;-144.65;100.00;64500.88;4981057;28;20022;-71
2022/09/10 09:40:03;;;;;;;1999.90;999.90;;;;;;;-144.65;100.00;64500.88;4984792;28;20030;-71
2022/09/10 09:42:47;;;;;;;1999.90;999.90;;;;;;;-144.65;100.00;64500.88;4979680;28;20041;-72
2022/09/10 09:45:20;;;;;;;1999.90;999.90;;;;;;;-144.65;100.00;64500.88;5002339;28;20032;-72
2022/09/10 09:47:46;;;;;;;1999.90;999.90;;;;;;;-144.65;100.00;64500.88;4981305;28;20065;-71
2022/09/10 09:50:12;;;;;;;1999.90;999.90;;;;;;;-144.65;100.00;64500.88;4983326;28;20517;-74
2022/09/10 09:52:40;;;;;;;1999.90;999.90;;;;;;;-144.65;100.00;64500.88;5002393;28;20023;-72
2022/09/10 09:55:25;;;;;;;1999.90;999.90;;;;;;;-144.65;100.00;64500.88;4983087;28;20395;-71
2022/09/10 09:58:25;;;;;;;1999.90;999.90;;;;;;;-144.65;100.00;64500.88;4998546;28;20080;-72
2022/09/10 10:01:03;;;;;;;1999.90;999.90;;;;;;;-144.65;100.00;64500.88;4983006;28;20032;-71
2022/09/10 10:03:31;;;;;;;1999.90;999.90;;;;;;;-144.65;100.00;64500.88;5000325;28;20026;-71
2022/09/10 10:06:06;;;;;;;1999.90;999.90;;;;;;;-144.65;100.00;64500.88;4982177;28;20018;-70
2022/09/10 10:08:41;;;;;;;1999.90;999.90;;;;;;;-144.65;100.00;64500.88;5001090;28;20545;-71
2022/09/10 10:11:08;;;;;;;1999.90;999.90;;;;;;;-144.65;100.00;64500.88;4983659;28;20084;-71
2022/09/10 10:13:42;;;;;;;1999.90;999.90;;;;;;;-144.65;100.00;64500.88;4990904;28;20053;-71
2022/09/10 10:16:21;;;;;;;1999.90;999.90;;;;;;;-144.65;100.00;64500.88;4991688;28;20015;-73
2022/09/10 10:18:47;;;;;;;1999.90;999.90;;;;;;;-144.65;100.00;64500.88;4991665;28;20034;-71
2022/09/10 10:21:33;;;;;;;1999.90;999.90;;;;;;;-144.65;100.00;64500.88;4999375;28;20022;-71
2022/09/10 10:23:58;;;;;;;;;;;;;;;-144.65;100.00;64500.88;5011721;28;20033;-70
2022/09/10 10:26:29;;;;;;;1999.90;999.90;;;;;;;-144.65;100.00;64500.88;5011173;28;20358;-70
2022/09/10 10:29:05;;;;;;;1999.90;999.90;;;;;;;-144.65;100.00;64500.88;5011658;28;20030;-70
2022/09/10 10:31:42;;;;;;;1999.90;999.90;;;;;;;-144.65;100.00;64500.88;4980916;28;20527;-71
2022/09/10 10:34:13;;;;;;;1999.90;999.90;;;;;;;-144.65;100.00;64500.88;4991518;28;20062;-70
2022/09/10 10:37:25;;;;;;;1999.90;999.90;;;;;;;-144.65;100.00;64500.88;4996594;28;20034;-71
2022/09/10 10:40:02;;;;;;;1999.90;999.90;;;;;;;-144.65;100.00;64500.88;5000048;28;20034;-72
2022/09/10 10:42:34;;;;;;;1999.90;999.90;;;;;;;-144.65;100.00;64500.88;4996212;28;20084;-72
2022/09/10 10:45:37;;;;;;;1999.90;999.90;;;;;;;-144.65;100.00;64500.88;4996858;28;20023;-71
2022/09/10 10:48:08;;;;;;;1999.90;999.90;;;;;;;-144.65;100.00;64500.88;4980124;28;20033;-71
2022/09/10 10:50:57;;;;;;;1999.90;999.90;;;;;;;-144.65;100.00;64500.88;4981857;28;20034;-70
2022/09/10 10:54:01;;;;;;;1999.90;999.90;;;;;;;-144.65;100.00;64500.88;4971665;28;20460;-68
2022/09/10 10:56:36;;;;;;;1999.90;999.90;;;;;;;-144.65;100.00;64500.88;4971453;28;20042;-71
2022/09/10 10:59:05;;;;;;;1999.90;999.90;;;;;;;-144.65;100.00;64500.88;4954380;28;20483;-73
2022/09/10 11:01:40;;;;;;;1999.90;999.90;;;;;;;-144.65;100.00;64500.88;4954221;28;20089;-71
2022/09/10 11:04:21;;;;;;;1999.90;999.90;;;;;;;-144.65;100.00;64500.88;4971723;28;20034;-70
2022/09/10 11:06:54;;;;;;;1999.90;999.90;;;;;;;-144.65;100.00;64500.88;4971593;28;20073;-72
2022/09/10 11:09:22;;;;;;;1999.90;999.90;;;;;;;-144.65;100.00;64500.88;4971670;28;20392;-72
2022/09/10 11:11:59;;;;;;;1999.90;999.90;;;;;;;-144.65;100.00;64500.88;4954230;28;20105;-72
2022/09/10 11:14:49;;;;;;;1999.90;999.90;;;;;;;-144.65;100.00;64500.88;4991261;28;20398;-72
2022/09/10 11:17:20;;;;;;;1999.90;999.90;;;;;;;-144.65;100.00;64500.88;5000020;28;20027;-71
2022/09/10 11:19:57;;;;;;;1999.90;999.90;;;;;;;-144.65;100.00;64500.88;4997648;28;20063;-72
2022/09/10 11:22:29;;;;;;;1999.90;999.90;;;;;;;-144.65;100.00;64500.88;4979253;28;20029;-71
2022/09/10 11:25:18;;;;;;;1999.90;999.90;;;;;;;-144.65;100.00;64500.88;5001022;28;20088;-72
2022/09/10 11:28:24;;;;;;;1999.90;999.90;;;;;;;-144.65;100.00;64500.88;5003597;28;20042;-72
2022/09/10 11:31:00;;;;;;;1999.90;999.90;;;;;;;-144.65;100.00;64500.88;5003817;28;20030;-72
2022/09/10 11:33:39;;;;;;;1999.90;999.90;;;;;;;-144.65;100.00;64500.88;4984888;28;20156;-71
2022/09/10 11:36:16;;;;;;;1999.90;999.90;;;;;;;-144.65;100.00;64500.88;5002874;28;20037;-72
2022/09/10 11:39:03;;;;;;;1999.90;999.90;;;;;;;-144.65;100.00;64500.88;5002880;28;20113;-71
2022/09/10 11:41:31;;;;;;;1999.90;999.90;;;;;;;-144.65;100.00;64500.88;4994134;28;20079;-70